sensor_id;sensor_type;location;lat;lon;timestamp;pressure;altitude;pressure_sealevel;temperature;humidity
14117;BME280;7137;51.436;6.544;2022-12-18T00:01:28;102450.25;;;-3.68;89.26
14117;BME280;7137;51.436;6.544;2022-12-18T00:04:31;102454.47;;;-3.68;89.76
14117;BME280;7137;51.436;6.544;2022-12-18T00:07:35;102452.31;;;-3.77;90.41
14117;BME280;7137;51.436;6.544;2022-12-18T00:10:37;102455.59;;;-3.79;90.33
14117;BME280;7137;51.436;6.544;2022-12-18T00:13:38;102454.28;;;-3.88;90.40
14117;BME280;7137;51.436;6.544;2022-12-18T00:16:43;102446.69;;;-3.86;90.64
14117;BME280;7137;51.436;6.544;2022-12-18T00:19:46;102448.28;;;-3.88;90.26
14117;BME280;7137;51.436;6.544;2022-12-18T00:22:49;102445.97;;;-3.83;90.05
14117;BME280;7137;51.436;6.544;2022-12-18T00:25:51;102451.16;;;-3.82;89.95
14117;BME280;7137;51.436;6.544;2022-12-18T00:28:53;102449.06;;;-3.74;90.13
14117;BME280;7137;51.436;6.544;2022-12-18T00:31:55;102436.50;;;-3.86;89.80
14117;BME280;7137;51.436;6.544;2022-12-18T00:34:57;102430.59;;;-3.85;88.80
14117;BME280;7137;51.436;6.544;2022-12-18T00:38:00;102419.59;;;-3.84;88.68
14117;BME280;7137;51.436;6.544;2022-12-18T00:41:01;102425.03;;;-3.78;89.02
14117;BME280;7137;51.436;6.544;2022-12-18T00:44:04;102424.97;;;-3.94;89.47
14117;BME280;7137;51.436;6.544;2022-12-18T00:47:05;102418.13;;;-3.95;90.06
14117;BME280;7137;51.436;6.544;2022-12-18T00:50:08;102428.88;;;-4.01;90.85
14117;BME280;7137;51.436;6.544;2022-12-18T00:53:11;102436.84;;;-3.95;90.62
14117;BME280;7137;51.436;6.544;2022-12-18T00:56:13;102426.91;;;-3.90;90.32
14117;BME280;7137;51.436;6.544;2022-12-18T00:59:16;102431.06;;;-3.92;90.54
14117;BME280;7137;51.436;6.544;2022-12-18T01:02:18;102435.38;;;-3.91;90.59
14117;BME280;7137;51.436;6.544;2022-12-18T01:05:19;102442.06;;;-3.93;90.64
14117;BME280;7137;51.436;6.544;2022-12-18T01:08:23;102447.84;;;-3.96;90.95
14117;BME280;7137;51.436;6.544;2022-12-18T01:11:24;102450.97;;;-4.01;91.06
14117;BME280;7137;51.436;6.544;2022-12-18T01:14:26;102455.97;;;-4.03;91.05
14117;BME280;7137;51.436;6.544;2022-12-18T01:17:28;102439.75;;;-3.89;90.22
14117;BME280;7137;51.436;6.544;2022-12-18T01:20:29;102437.22;;;-3.89;89.20
14117;BME280;7137;51.436;6.544;2022-12-18T01:23:32;102441.28;;;-3.92;89.25
14117;BME280;7137;51.436;6.544;2022-12-18T01:26:34;102437.94;;;-3.91;89.95
14117;BME280;7137;51.436;6.544;2022-12-18T01:29:35;102438.31;;;-3.83;88.78
14117;BME280;7137;51.436;6.544;2022-12-18T01:32:37;102448.81;;;-3.79;89.58
14117;BME280;7137;51.436;6.544;2022-12-18T01:35:42;102440.13;;;-3.97;89.73
14117;BME280;7137;51.436;6.544;2022-12-18T01:38:45;102427.03;;;-4.03;89.91
14117;BME280;7137;51.436;6.544;2022-12-18T01:41:47;102431.75;;;-3.95;90.00
14117;BME280;7137;51.436;6.544;2022-12-18T01:45:22;102435.38;;;-3.91;88.93
14117;BME280;7137;51.436;6.544;2022-12-18T01:48:25;102431.59;;;-3.98;90.18
14117;BME280;7137;51.436;6.544;2022-12-18T01:51:27;102435.97;;;-3.95;90.38
14117;BME280;7137;51.436;6.544;2022-12-18T01:54:32;102439.28;;;-3.81;88.85
14117;BME280;7137;51.436;6.544;2022-12-18T01:57:34;102448.22;;;-3.90;89.52
14117;BME280;7137;51.436;6.544;2022-12-18T02:00:37;102450.31;;;-3.97;90.01
14117;BME280;7137;51.436;6.544;2022-12-18T02:03:41;102440.19;;;-3.96;89.54
14117;BME280;7137;51.436;6.544;2022-12-18T02:06:42;102435.44;;;-3.90;89.22
14117;BME280;7137;51.436;6.544;2022-12-18T02:09:48;102432.75;;;-3.93;89.50
14117;BME280;7137;51.436;6.544;2022-12-18T02:12:55;102440.75;;;-4.01;90.31
14117;BME280;7137;51.436;6.544;2022-12-18T02:16:02;102443.03;;;-3.91;89.65
14117;BME280;7137;51.436;6.544;2022-12-18T02:19:19;102442.59;;;-3.99;88.94
14117;BME280;7137;51.436;6.544;2022-12-18T02:22:31;102444.88;;;-3.89;88.72
14117;BME280;7137;51.436;6.544;2022-12-18T02:26:09;102434.81;;;-3.85;87.99
14117;BME280;7137;51.436;6.544;2022-12-18T02:29:16;102429.88;;;-3.82;88.24
14117;BME280;7137;51.436;6.544;2022-12-18T02:32:22;102428.91;;;-3.84;88.27
14117;BME280;7137;51.436;6.544;2022-12-18T02:35:27;102437.38;;;-3.85;89.00
14117;BME280;7137;51.436;6.544;2022-12-18T02:38:31;102423.44;;;-3.76;88.66
14117;BME280;7137;51.436;6.544;2022-12-18T02:41:35;102431.31;;;-3.88;89.29
14117;BME280;7137;51.436;6.544;2022-12-18T02:44:42;102420.63;;;-3.80;89.19
14117;BME280;7137;51.436;6.544;2022-12-18T02:47:47;102419.13;;;-3.77;88.67
14117;BME280;7137;51.436;6.544;2022-12-18T02:50:54;102422.13;;;-3.84;89.00
14117;BME280;7137;51.436;6.544;2022-12-18T02:54:04;102423.41;;;-3.92;89.63
14117;BME280;7137;51.436;6.544;2022-12-18T02:57:16;102432.63;;;-3.94;89.77
14117;BME280;7137;51.436;6.544;2022-12-18T03:00:21;102427.25;;;-3.84;88.68
14117;BME280;7137;51.436;6.544;2022-12-18T03:03:29;102425.97;;;-3.92;89.39
14117;BME280;7137;51.436;6.544;2022-12-18T03:06:35;102419.00;;;-3.95;89.42
14117;BME280;7137;51.436;6.544;2022-12-18T03:09:43;102420.94;;;-3.91;88.35
14117;BME280;7137;51.436;6.544;2022-12-18T03:12:52;102416.56;;;-3.93;88.86
14117;BME280;7137;51.436;6.544;2022-12-18T03:15:55;102408.19;;;-3.91;88.67
14117;BME280;7137;51.436;6.544;2022-12-18T03:19:01;102409.94;;;-3.90;88.30
14117;BME280;7137;51.436;6.544;2022-12-18T03:22:05;102407.53;;;-3.86;88.64
14117;BME280;7137;51.436;6.544;2022-12-18T03:25:11;102395.03;;;-3.82;87.72
14117;BME280;7137;51.436;6.544;2022-12-18T03:28:16;102402.16;;;-3.76;88.29
14117;BME280;7137;51.436;6.544;2022-12-18T03:31:23;102398.88;;;-3.74;87.09
14117;BME280;7137;51.436;6.544;2022-12-18T03:34:28;102403.19;;;-3.73;88.26
14117;BME280;7137;51.436;6.544;2022-12-18T03:37:31;102411.47;;;-3.77;88.29
14117;BME280;7137;51.436;6.544;2022-12-18T03:40:41;102407.69;;;-3.83;88.39
14117;BME280;7137;51.436;6.544;2022-12-18T03:43:49;102404.84;;;-3.73;87.17
14117;BME280;7137;51.436;6.544;2022-12-18T03:46:58;102404.84;;;-3.73;87.85
14117;BME280;7137;51.436;6.544;2022-12-18T03:50:06;102409.88;;;-3.75;88.32
14117;BME280;7137;51.436;6.544;2022-12-18T03:53:23;102402.22;;;-3.75;88.68
14117;BME280;7137;51.436;6.544;2022-12-18T03:56:31;102408.56;;;-3.83;88.03
14117;BME280;7137;51.436;6.544;2022-12-18T03:59:37;102394.16;;;-3.82;88.77
14117;BME280;7137;51.436;6.544;2022-12-18T04:02:43;102387.44;;;-3.80;88.11
14117;BME280;7137;51.436;6.544;2022-12-18T04:05:48;102402.47;;;-3.70;87.75
14117;BME280;7137;51.436;6.544;2022-12-18T04:08:51;102397.19;;;-3.73;87.93
14117;BME280;7137;51.436;6.544;2022-12-18T04:11:53;102390.47;;;-3.88;88.42
14117;BME280;7137;51.436;6.544;2022-12-18T04:14:56;102383.13;;;-3.81;88.12
14117;BME280;7137;51.436;6.544;2022-12-18T04:17:57;102384.81;;;-3.82;88.64
14117;BME280;7137;51.436;6.544;2022-12-18T04:20:59;102384.34;;;-3.75;88.39
14117;BME280;7137;51.436;6.544;2022-12-18T04:24:01;102378.75;;;-3.68;88.05
14117;BME280;7137;51.436;6.544;2022-12-18T04:27:03;102378.69;;;-3.69;87.88
14117;BME280;7137;51.436;6.544;2022-12-18T04:30:08;102381.31;;;-3.68;88.88
14117;BME280;7137;51.436;6.544;2022-12-18T04:33:10;102373.28;;;-3.59;88.53
14117;BME280;7137;51.436;6.544;2022-12-18T04:36:12;102376.41;;;-3.65;88.32
14117;BME280;7137;51.436;6.544;2022-12-18T04:39:14;102376.00;;;-3.56;87.51
14117;BME280;7137;51.436;6.544;2022-12-18T04:42:15;102367.16;;;-3.63;88.58
14117;BME280;7137;51.436;6.544;2022-12-18T04:45:18;102371.22;;;-3.50;87.83
14117;BME280;7137;51.436;6.544;2022-12-18T04:48:20;102376.06;;;-3.54;88.39
14117;BME280;7137;51.436;6.544;2022-12-18T04:51:22;102364.19;;;-3.54;87.38
14117;BME280;7137;51.436;6.544;2022-12-18T04:54:23;102357.47;;;-3.52;87.72
14117;BME280;7137;51.436;6.544;2022-12-18T04:57:25;102358.75;;;-3.44;88.01
14117;BME280;7137;51.436;6.544;2022-12-18T05:00:28;102355.56;;;-3.40;87.01
14117;BME280;7137;51.436;6.544;2022-12-18T05:03:30;102348.97;;;-3.36;86.69
14117;BME280;7137;51.436;6.544;2022-12-18T05:06:31;102345.91;;;-3.45;88.48
14117;BME280;7137;51.436;6.544;2022-12-18T05:09:33;102355.63;;;-3.38;87.72
14117;BME280;7137;51.436;6.544;2022-12-18T05:12:35;102357.81;;;-3.46;88.73
14117;BME280;7137;51.436;6.544;2022-12-18T05:15:58;102357.88;;;-3.44;88.37
14117;BME280;7137;51.436;6.544;2022-12-18T05:19:00;102360.50;;;-3.43;87.73
14117;BME280;7137;51.436;6.544;2022-12-18T05:22:01;102362.34;;;-3.40;88.35
14117;BME280;7137;51.436;6.544;2022-12-18T05:25:03;102362.03;;;-3.46;88.14
14117;BME280;7137;51.436;6.544;2022-12-18T05:28:05;102371.28;;;-3.32;87.59
14117;BME280;7137;51.436;6.544;2022-12-18T05:31:08;102375.38;;;-3.36;87.88
14117;BME280;7137;51.436;6.544;2022-12-18T05:34:10;102372.63;;;-3.39;87.71
14117;BME280;7137;51.436;6.544;2022-12-18T05:37:11;102378.63;;;-3.38;88.32
14117;BME280;7137;51.436;6.544;2022-12-18T05:40:13;102380.94;;;-3.43;87.35
14117;BME280;7137;51.436;6.544;2022-12-18T05:43:15;102392.84;;;-3.43;86.97
14117;BME280;7137;51.436;6.544;2022-12-18T05:46:18;102400.72;;;-3.55;87.51
14117;BME280;7137;51.436;6.544;2022-12-18T05:49:21;102396.25;;;-3.59;87.91
14117;BME280;7137;51.436;6.544;2022-12-18T05:52:23;102409.59;;;-3.65;87.94
14117;BME280;7137;51.436;6.544;2022-12-18T05:55:24;102421.06;;;-3.56;87.97
14117;BME280;7137;51.436;6.544;2022-12-18T05:58:26;102409.59;;;-3.65;87.79
14117;BME280;7137;51.436;6.544;2022-12-18T06:01:29;102410.53;;;-3.63;88.10
14117;BME280;7137;51.436;6.544;2022-12-18T06:04:31;102419.47;;;-3.54;87.95
14117;BME280;7137;51.436;6.544;2022-12-18T06:07:33;102433.44;;;-3.64;87.23
14117;BME280;7137;51.436;6.544;2022-12-18T06:10:34;102433.25;;;-3.67;88.22
14117;BME280;7137;51.436;6.544;2022-12-18T06:13:36;102429.81;;;-3.68;87.54
14117;BME280;7137;51.436;6.544;2022-12-18T06:16:39;102426.31;;;-3.70;87.46
14117;BME280;7137;51.436;6.544;2022-12-18T06:19:42;102422.09;;;-3.69;87.59
14117;BME280;7137;51.436;6.544;2022-12-18T06:22:43;102414.84;;;-3.62;88.37
14117;BME280;7137;51.436;6.544;2022-12-18T06:25:45;102415.50;;;-3.49;87.17
14117;BME280;7137;51.436;6.544;2022-12-18T06:28:46;102406.09;;;-3.50;87.10
14117;BME280;7137;51.436;6.544;2022-12-18T06:31:49;102394.91;;;-3.52;86.77
14117;BME280;7137;51.436;6.544;2022-12-18T06:34:50;102390.94;;;-3.47;86.82
14117;BME280;7137;51.436;6.544;2022-12-18T06:37:53;102382.84;;;-3.55;87.02
14117;BME280;7137;51.436;6.544;2022-12-18T06:40:54;102370.41;;;-3.65;86.91
14117;BME280;7137;51.436;6.544;2022-12-18T06:43:57;102371.38;;;-3.47;86.27
14117;BME280;7137;51.436;6.544;2022-12-18T06:47:00;102361.81;;;-3.51;87.26
14117;BME280;7137;51.436;6.544;2022-12-18T06:50:03;102365.53;;;-3.44;86.64
14117;BME280;7137;51.436;6.544;2022-12-18T06:53:05;102367.94;;;-3.47;87.46
14117;BME280;7137;51.436;6.544;2022-12-18T06:56:07;102372.91;;;-3.50;88.18
14117;BME280;7137;51.436;6.544;2022-12-18T06:59:08;102361.47;;;-3.57;88.81
14117;BME280;7137;51.436;6.544;2022-12-18T07:02:12;102364.44;;;-3.49;87.78
14117;BME280;7137;51.436;6.544;2022-12-18T07:05:14;102359.88;;;-3.39;87.71
14117;BME280;7137;51.436;6.544;2022-12-18T07:08:15;102355.03;;;-3.50;87.91
14117;BME280;7137;51.436;6.544;2022-12-18T07:11:18;102364.19;;;-3.38;87.19
14117;BME280;7137;51.436;6.544;2022-12-18T07:14:20;102366.66;;;-3.39;87.35
14117;BME280;7137;51.436;6.544;2022-12-18T07:17:23;102366.50;;;-3.42;87.49
14117;BME280;7137;51.436;6.544;2022-12-18T07:20:24;102370.09;;;-3.39;87.68
14117;BME280;7137;51.436;6.544;2022-12-18T07:23:26;102369.38;;;-3.36;88.17
14117;BME280;7137;51.436;6.544;2022-12-18T07:26:27;102351.59;;;-3.35;87.37
14117;BME280;7137;51.436;6.544;2022-12-18T07:29:29;102352.75;;;-3.28;86.86
14117;BME280;7137;51.436;6.544;2022-12-18T07:32:32;102354.13;;;-3.18;86.62
14117;BME280;7137;51.436;6.544;2022-12-18T07:35:34;102353.38;;;-3.16;86.61
14117;BME280;7137;51.436;6.544;2022-12-18T07:38:36;102348.13;;;-3.19;86.10
14117;BME280;7137;51.436;6.544;2022-12-18T07:41:38;102349.66;;;-3.22;87.17
14117;BME280;7137;51.436;6.544;2022-12-18T07:44:42;102363.47;;;-3.19;86.20
14117;BME280;7137;51.436;6.544;2022-12-18T07:47:45;102359.44;;;-3.14;86.88
14117;BME280;7137;51.436;6.544;2022-12-18T07:50:46;102363.94;;;-3.26;88.32
14117;BME280;7137;51.436;6.544;2022-12-18T07:53:48;102358.19;;;-3.06;87.39
14117;BME280;7137;51.436;6.544;2022-12-18T07:56:49;102342.50;;;-2.95;86.17
14117;BME280;7137;51.436;6.544;2022-12-18T07:59:51;102330.34;;;-3.00;87.13
14117;BME280;7137;51.436;6.544;2022-12-18T08:02:54;102336.34;;;-2.99;86.50
14117;BME280;7137;51.436;6.544;2022-12-18T08:05:58;102331.09;;;-2.84;85.31
14117;BME280;7137;51.436;6.544;2022-12-18T08:09:00;102331.03;;;-2.86;85.71
14117;BME280;7137;51.436;6.544;2022-12-18T08:12:01;102318.25;;;-2.86;86.31
14117;BME280;7137;51.436;6.544;2022-12-18T08:15:04;102304.41;;;-2.73;86.49
14117;BME280;7137;51.436;6.544;2022-12-18T08:18:07;102294.56;;;-2.65;86.08
14117;BME280;7137;51.436;6.544;2022-12-18T08:21:09;102290.91;;;-2.53;85.18
14117;BME280;7137;51.436;6.544;2022-12-18T08:24:10;102283.75;;;-2.41;85.57
14117;BME280;7137;51.436;6.544;2022-12-18T08:27:12;102284.50;;;-2.43;85.06
14117;BME280;7137;51.436;6.544;2022-12-18T08:30:14;102281.78;;;-2.28;84.63
14117;BME280;7137;51.436;6.544;2022-12-18T08:33:17;102291.56;;;-2.20;83.79
14117;BME280;7137;51.436;6.544;2022-12-18T08:36:19;102292.72;;;-2.13;84.47
14117;BME280;7137;51.436;6.544;2022-12-18T08:39:21;102291.53;;;-2.02;83.44
14117;BME280;7137;51.436;6.544;2022-12-18T08:42:23;102292.53;;;-1.98;83.55
14117;BME280;7137;51.436;6.544;2022-12-18T08:45:41;102297.63;;;-1.81;82.80
14117;BME280;7137;51.436;6.544;2022-12-18T08:48:44;102292.63;;;-1.77;82.84
14117;BME280;7137;51.436;6.544;2022-12-18T08:51:46;102292.16;;;-1.50;82.10
14117;BME280;7137;51.436;6.544;2022-12-18T08:54:48;102284.59;;;-1.46;82.02
14117;BME280;7137;51.436;6.544;2022-12-18T08:57:50;102282.13;;;-1.24;82.64
14117;BME280;7137;51.436;6.544;2022-12-18T09:00:51;102290.09;;;-0.97;82.86
14117;BME280;7137;51.436;6.544;2022-12-18T09:03:54;102282.88;;;-0.85;80.22
14117;BME280;7137;51.436;6.544;2022-12-18T09:06:56;102282.31;;;-0.78;80.79
14117;BME280;7137;51.436;6.544;2022-12-18T09:09:57;102285.75;;;-0.77;80.06
14117;BME280;7137;51.436;6.544;2022-12-18T09:12:59;102282.44;;;-0.75;80.23
14117;BME280;7137;51.436;6.544;2022-12-18T09:16:03;102285.50;;;-0.63;79.85
14117;BME280;7137;51.436;6.544;2022-12-18T09:19:06;102263.91;;;-0.68;78.42
14117;BME280;7137;51.436;6.544;2022-12-18T09:22:07;102278.84;;;-0.57;78.80
14117;BME280;7137;51.436;6.544;2022-12-18T09:25:10;102287.59;;;-0.30;79.32
14117;BME280;7137;51.436;6.544;2022-12-18T09:28:13;102292.69;;;-0.32;77.95
14117;BME280;7137;51.436;6.544;2022-12-18T09:31:16;102288.19;;;-0.15;78.63
14117;BME280;7137;51.436;6.544;2022-12-18T09:34:19;102283.50;;;-0.03;78.14
14117;BME280;7137;51.436;6.544;2022-12-18T09:37:22;102269.63;;;0.15;77.19
14117;BME280;7137;51.436;6.544;2022-12-18T09:40:35;102261.66;;;0.09;75.75
14117;BME280;7137;51.436;6.544;2022-12-18T09:43:41;102257.78;;;-0.04;73.87
14117;BME280;7137;51.436;6.544;2022-12-18T09:46:47;102251.88;;;-0.02;74.38
14117;BME280;7137;51.436;6.544;2022-12-18T09:49:54;102262.59;;;-0.13;74.08
14117;BME280;7137;51.436;6.544;2022-12-18T09:52:59;102265.38;;;-0.07;73.67
14117;BME280;7137;51.436;6.544;2022-12-18T09:56:04;102257.47;;;0.11;73.20
14117;BME280;7137;51.436;6.544;2022-12-18T09:59:18;102255.72;;;0.10;72.64
14117;BME280;7137;51.436;6.544;2022-12-18T10:02:23;102261.28;;;0.22;72.28
14117;BME280;7137;51.436;6.544;2022-12-18T10:05:33;102258.25;;;0.32;71.78
14117;BME280;7137;51.436;6.544;2022-12-18T10:08:41;102263.88;;;0.46;71.47
14117;BME280;7137;51.436;6.544;2022-12-18T10:11:56;102259.25;;;0.61;71.16
14117;BME280;7137;51.436;6.544;2022-12-18T10:15:07;102250.06;;;0.69;70.55
14117;BME280;7137;51.436;6.544;2022-12-18T10:18:23;102240.75;;;0.71;69.26
14117;BME280;7137;51.436;6.544;2022-12-18T10:21:32;102228.03;;;0.76;70.22
14117;BME280;7137;51.436;6.544;2022-12-18T10:24:39;102220.22;;;0.73;68.98
14117;BME280;7137;51.436;6.544;2022-12-18T10:27:43;102215.19;;;0.76;69.19
14117;BME280;7137;51.436;6.544;2022-12-18T10:30:46;102201.81;;;0.86;68.52
14117;BME280;7137;51.436;6.544;2022-12-18T10:33:47;102216.63;;;0.95;68.86
14117;BME280;7137;51.436;6.544;2022-12-18T10:36:54;102221.34;;;0.81;67.80
14117;BME280;7137;51.436;6.544;2022-12-18T10:40:14;102211.34;;;0.90;68.19
14117;BME280;7137;51.436;6.544;2022-12-18T10:43:20;102212.66;;;0.77;68.34
14117;BME280;7137;51.436;6.544;2022-12-18T10:46:23;102203.59;;;0.88;68.20
14117;BME280;7137;51.436;6.544;2022-12-18T10:49:26;102187.03;;;1.07;67.69
14117;BME280;7137;51.436;6.544;2022-12-18T10:52:30;102187.16;;;1.12;67.50
14117;BME280;7137;51.436;6.544;2022-12-18T10:55:34;102189.25;;;1.24;67.51
14117;BME280;7137;51.436;6.544;2022-12-18T10:58:37;102178.13;;;1.25;66.83
14117;BME280;7137;51.436;6.544;2022-12-18T11:01:51;102177.88;;;1.15;67.64
14117;BME280;7137;51.436;6.544;2022-12-18T11:04:55;102190.44;;;1.35;67.62
14117;BME280;7137;51.436;6.544;2022-12-18T11:08:02;102186.88;;;1.30;67.08
14117;BME280;7137;51.436;6.544;2022-12-18T11:11:15;102183.50;;;1.32;67.23
14117;BME280;7137;51.436;6.544;2022-12-18T11:14:25;102178.69;;;1.14;66.59
14117;BME280;7137;51.436;6.544;2022-12-18T11:17:30;102167.69;;;1.20;66.36
14117;BME280;7137;51.436;6.544;2022-12-18T11:20:37;102155.16;;;1.31;66.65
14117;BME280;7137;51.436;6.544;2022-12-18T11:23:46;102157.13;;;1.39;65.98
14117;BME280;7137;51.436;6.544;2022-12-18T11:26:49;102154.28;;;1.30;65.56
14117;BME280;7137;51.436;6.544;2022-12-18T11:29:52;102143.00;;;1.27;66.43
14117;BME280;7137;51.436;6.544;2022-12-18T11:32:56;102146.66;;;1.33;66.86
14117;BME280;7137;51.436;6.544;2022-12-18T11:36:01;102146.63;;;1.32;67.10
14117;BME280;7137;51.436;6.544;2022-12-18T11:39:14;102125.06;;;1.28;66.89
14117;BME280;7137;51.436;6.544;2022-12-18T11:42:23;102113.19;;;1.33;67.25
14117;BME280;7137;51.436;6.544;2022-12-18T11:45:30;102115.38;;;1.19;67.54
14117;BME280;7137;51.436;6.544;2022-12-18T11:48:38;102113.50;;;1.14;67.30
14117;BME280;7137;51.436;6.544;2022-12-18T11:51:47;102112.75;;;1.18;67.36
14117;BME280;7137;51.436;6.544;2022-12-18T11:54:55;102114.91;;;1.33;67.40
14117;BME280;7137;51.436;6.544;2022-12-18T11:58:03;102104.97;;;1.45;67.36
14117;BME280;7137;51.436;6.544;2022-12-18T12:01:16;102112.44;;;1.37;66.88
14117;BME280;7137;51.436;6.544;2022-12-18T12:04:39;102110.16;;;1.46;67.07
14117;BME280;7137;51.436;6.544;2022-12-18T12:07:47;102105.88;;;1.47;67.29
14117;BME280;7137;51.436;6.544;2022-12-18T12:10:58;102098.69;;;1.37;66.26
14117;BME280;7137;51.436;6.544;2022-12-18T12:14:17;102109.56;;;1.27;66.25
14117;BME280;7137;51.436;6.544;2022-12-18T12:17:27;102097.03;;;1.39;66.22
14117;BME280;7137;51.436;6.544;2022-12-18T12:20:42;102102.94;;;1.35;66.11
14117;BME280;7137;51.436;6.544;2022-12-18T12:23:53;102088.97;;;1.57;66.80
14117;BME280;7137;51.436;6.544;2022-12-18T12:27:04;102068.97;;;1.46;66.11
14117;BME280;7137;51.436;6.544;2022-12-18T12:30:19;102079.63;;;1.29;66.05
14117;BME280;7137;51.436;6.544;2022-12-18T12:33:31;102072.66;;;1.26;66.56
14117;BME280;7137;51.436;6.544;2022-12-18T12:36:45;102057.19;;;1.25;66.42
14117;BME280;7137;51.436;6.544;2022-12-18T12:39:52;102047.16;;;1.34;67.04
14117;BME280;7137;51.436;6.544;2022-12-18T12:42:59;102062.63;;;1.35;66.13
14117;BME280;7137;51.436;6.544;2022-12-18T12:46:16;102074.91;;;1.44;66.47
14117;BME280;7137;51.436;6.544;2022-12-18T12:49:21;102067.09;;;1.41;66.12
14117;BME280;7137;51.436;6.544;2022-12-18T12:52:30;102077.13;;;1.32;66.13
14117;BME280;7137;51.436;6.544;2022-12-18T12:55:34;102079.25;;;1.46;66.93
14117;BME280;7137;51.436;6.544;2022-12-18T12:58:45;102076.06;;;1.55;66.17
14117;BME280;7137;51.436;6.544;2022-12-18T13:01:52;102064.00;;;1.54;66.54
14117;BME280;7137;51.436;6.544;2022-12-18T13:04:59;102063.69;;;1.42;66.61
14117;BME280;7137;51.436;6.544;2022-12-18T13:08:04;102056.53;;;1.63;67.38
14117;BME280;7137;51.436;6.544;2022-12-18T13:11:29;102035.78;;;1.57;66.26
14117;BME280;7137;51.436;6.544;2022-12-18T13:14:50;102033.09;;;1.54;67.16
14117;BME280;7137;51.436;6.544;2022-12-18T13:18:10;102035.84;;;1.60;66.57
14117;BME280;7137;51.436;6.544;2022-12-18T13:21:21;102023.38;;;1.42;66.52
14117;BME280;7137;51.436;6.544;2022-12-18T13:24:30;102016.91;;;1.57;66.79
14117;BME280;7137;51.436;6.544;2022-12-18T13:27:59;102016.91;;;1.57;66.74
14117;BME280;7137;51.436;6.544;2022-12-18T13:31:03;102005.44;;;1.45;66.87
14117;BME280;7137;51.436;6.544;2022-12-18T13:34:14;101988.06;;;1.38;66.73
14117;BME280;7137;51.436;6.544;2022-12-18T13:37:40;101977.56;;;1.29;67.14
14117;BME280;7137;51.436;6.544;2022-12-18T13:40:57;101987.69;;;1.25;66.99
14117;BME280;7137;51.436;6.544;2022-12-18T13:44:11;101984.22;;;1.23;67.65
14117;BME280;7137;51.436;6.544;2022-12-18T13:47:27;101976.91;;;1.06;67.21
14117;BME280;7137;51.436;6.544;2022-12-18T13:50:33;101981.91;;;1.00;67.60
14117;BME280;7137;51.436;6.544;2022-12-18T13:53:38;101981.53;;;0.88;67.22
14117;BME280;7137;51.436;6.544;2022-12-18T13:56:44;101974.81;;;0.93;67.86
14117;BME280;7137;51.436;6.544;2022-12-18T13:59:46;101974.03;;;0.96;68.34
14117;BME280;7137;51.436;6.544;2022-12-18T14:02:49;101969.00;;;0.99;68.18
14117;BME280;7137;51.436;6.544;2022-12-18T14:05:54;101967.75;;;1.16;67.90
14117;BME280;7137;51.436;6.544;2022-12-18T14:08:57;101962.72;;;0.89;68.08
14117;BME280;7137;51.436;6.544;2022-12-18T14:12:00;101962.91;;;0.97;67.92
14117;BME280;7137;51.436;6.544;2022-12-18T14:15:23;101948.78;;;0.82;67.87
14117;BME280;7137;51.436;6.544;2022-12-18T14:18:31;101946.22;;;0.82;68.74
14117;BME280;7137;51.436;6.544;2022-12-18T14:21:37;101948.38;;;0.67;68.59
14117;BME280;7137;51.436;6.544;2022-12-18T14:24:39;101933.59;;;0.60;68.29
14117;BME280;7137;51.436;6.544;2022-12-18T14:27:43;101933.03;;;0.70;69.02
14117;BME280;7137;51.436;6.544;2022-12-18T14:30:46;101939.97;;;0.73;68.30
14117;BME280;7137;51.436;6.544;2022-12-18T14:33:49;101945.88;;;0.70;68.41
14117;BME280;7137;51.436;6.544;2022-12-18T14:36:52;101954.09;;;0.57;68.50
14117;BME280;7137;51.436;6.544;2022-12-18T14:39:55;101945.63;;;0.61;68.51
14117;BME280;7137;51.436;6.544;2022-12-18T14:42:58;101941.47;;;0.66;69.08
14117;BME280;7137;51.436;6.544;2022-12-18T14:46:00;101944.19;;;0.71;68.93
14117;BME280;7137;51.436;6.544;2022-12-18T14:49:18;101926.22;;;0.71;68.39
14117;BME280;7137;51.436;6.544;2022-12-18T14:52:24;101934.69;;;0.68;68.41
14117;BME280;7137;51.436;6.544;2022-12-18T14:55:28;101925.38;;;0.72;69.02
14117;BME280;7137;51.436;6.544;2022-12-18T14:58:29;101930.06;;;0.86;68.93
14117;BME280;7137;51.436;6.544;2022-12-18T15:01:33;101937.75;;;0.85;68.47
14117;BME280;7137;51.436;6.544;2022-12-18T15:04:39;101937.75;;;0.85;68.33
14117;BME280;7137;51.436;6.544;2022-12-18T15:07:42;101942.59;;;0.74;68.58
14117;BME280;7137;51.436;6.544;2022-12-18T15:10:47;101931.16;;;0.65;68.13
14117;BME280;7137;51.436;6.544;2022-12-18T15:13:49;101930.84;;;0.54;68.83
14117;BME280;7137;51.436;6.544;2022-12-18T15:16:52;101919.28;;;0.40;69.09
14117;BME280;7137;51.436;6.544;2022-12-18T15:20:00;101911.78;;;0.46;69.75
14117;BME280;7137;51.436;6.544;2022-12-18T15:23:02;101903.19;;;0.45;69.62
14117;BME280;7137;51.436;6.544;2022-12-18T15:26:05;101904.09;;;0.47;69.38
14117;BME280;7137;51.436;6.544;2022-12-18T15:29:19;101905.72;;;0.44;70.12
14117;BME280;7137;51.436;6.544;2022-12-18T15:32:21;101917.69;;;0.43;69.55
14117;BME280;7137;51.436;6.544;2022-12-18T15:35:24;101921.19;;;0.45;70.11
14117;BME280;7137;51.436;6.544;2022-12-18T15:38:26;101918.81;;;0.53;70.17
14117;BME280;7137;51.436;6.544;2022-12-18T15:41:30;101912.66;;;0.46;70.65
14117;BME280;7137;51.436;6.544;2022-12-18T15:44:32;101908.50;;;0.51;69.97
14117;BME280;7137;51.436;6.544;2022-12-18T15:47:34;101909.44;;;0.55;69.74
14117;BME280;7137;51.436;6.544;2022-12-18T15:50:37;101916.44;;;0.59;69.98
14117;BME280;7137;51.436;6.544;2022-12-18T15:53:39;101911.97;;;0.53;70.40
14117;BME280;7137;51.436;6.544;2022-12-18T15:56:41;101908.28;;;0.44;70.61
14117;BME280;7137;51.436;6.544;2022-12-18T16:00:00;101916.47;;;0.31;70.63
14117;BME280;7137;51.436;6.544;2022-12-18T16:03:01;101918.72;;;0.20;71.04
14117;BME280;7137;51.436;6.544;2022-12-18T16:06:05;101911.88;;;0.20;71.77
14117;BME280;7137;51.436;6.544;2022-12-18T16:09:07;101916.97;;;0.19;71.82
14117;BME280;7137;51.436;6.544;2022-12-18T16:12:15;101919.53;;;0.19;71.67
14117;BME280;7137;51.436;6.544;2022-12-18T16:15:18;101918.63;;;0.17;71.89
14117;BME280;7137;51.436;6.544;2022-12-18T16:18:19;101912.69;;;0.19;72.13
14117;BME280;7137;51.436;6.544;2022-12-18T16:21:22;101925.63;;;0.22;72.26
14117;BME280;7137;51.436;6.544;2022-12-18T16:24:25;101914.53;;;0.23;72.24
14117;BME280;7137;51.436;6.544;2022-12-18T16:27:27;101904.53;;;0.33;72.05